sensor_id;sensor_type;location;lat;lon;timestamp;pressure;altitude;pressure_sealevel;temperature;humidity
30682;BME280;17439;48.092;11.842;2023-08-06T00:00:46;94719.06;;;18.51;70.56
30682;BME280;17439;48.092;11.842;2023-08-06T00:03:13;94717.50;;;18.49;70.82
30682;BME280;17439;48.092;11.842;2023-08-06T00:05:43;94723.34;;;18.48;70.05
30682;BME280;17439;48.092;11.842;2023-08-06T00:08:10;94714.72;;;18.46;70.56
30682;BME280;17439;48.092;11.842;2023-08-06T00:10:36;94717.84;;;18.44;70.79
30682;BME280;17439;48.092;11.842;2023-08-06T00:13:03;94729.59;;;18.45;70.49
30682;BME280;17439;48.092;11.842;2023-08-06T00:15:30;94728.03;;;18.44;70.22
30682;BME280;17439;48.092;11.842;2023-08-06T00:17:56;94740.56;;;18.41;70.55
30682;BME280;17439;48.092;11.842;2023-08-06T00:20:23;94736.22;;;18.40;70.32
30682;BME280;17439;48.092;11.842;2023-08-06T00:22:50;94751.91;;;18.40;70.62
30682;BME280;17439;48.092;11.842;2023-08-06T00:25:17;94748.31;;;18.36;70.31
30682;BME280;17439;48.092;11.842;2023-08-06T00:27:43;94748.31;;;18.36;70.60
30682;BME280;17439;48.092;11.842;2023-08-06T00:30:10;94750.66;;;18.34;70.61
30682;BME280;17439;48.092;11.842;2023-08-06T00:32:37;94757.72;;;18.31;70.27
30682;BME280;17439;48.092;11.842;2023-08-06T00:35:04;94752.97;;;18.28;70.35
30682;BME280;17439;48.092;11.842;2023-08-06T00:37:31;94763.97;;;18.28;70.64
30682;BME280;17439;48.092;11.842;2023-08-06T00:39:58;94763.16;;;18.27;70.67
30682;BME280;17439;48.092;11.842;2023-08-06T00:42:25;94765.13;;;18.27;70.59
30682;BME280;17439;48.092;11.842;2023-08-06T00:44:52;94759.22;;;18.25;70.16
30682;BME280;17439;48.092;11.842;2023-08-06T00:47:19;94749.78;;;18.22;70.15
30682;BME280;17439;48.092;11.842;2023-08-06T00:49:45;94741.94;;;18.21;70.10
30682;BME280;17439;48.092;11.842;2023-08-06T00:52:13;94744.66;;;18.21;69.70
30682;BME280;17439;48.092;11.842;2023-08-06T00:54:40;94747.38;;;18.17;69.82
30682;BME280;17439;48.092;11.842;2023-08-06T00:57:07;94757.16;;;18.15;69.75
30682;BME280;17439;48.092;11.842;2023-08-06T00:59:34;94744.19;;;18.11;69.68
30682;BME280;17439;48.092;11.842;2023-08-06T01:02:01;94736.72;;;18.08;69.49
30682;BME280;17439;48.092;11.842;2023-08-06T01:04:28;94731.97;;;18.05;69.29
30682;BME280;17439;48.092;11.842;2023-08-06T01:07:03;94732.31;;;18.00;68.93
30682;BME280;17439;48.092;11.842;2023-08-06T01:12:29;94733.03;;;17.93;69.22
30682;BME280;17439;48.092;11.842;2023-08-06T01:15:01;94735.78;;;17.93;69.64
30682;BME280;17439;48.092;11.842;2023-08-06T01:17:31;94740.06;;;17.91;69.28
30682;BME280;17439;48.092;11.842;2023-08-06T01:19:58;94742.38;;;17.89;69.47
30682;BME280;17439;48.092;11.842;2023-08-06T01:22:25;94741.50;;;17.85;69.52
30682;BME280;17439;48.092;11.842;2023-08-06T01:24:52;94729.00;;;17.84;69.69
30682;BME280;17439;48.092;11.842;2023-08-06T01:27:33;94726.63;;;17.82;68.88
30682;BME280;17439;48.092;11.842;2023-08-06T01:30:27;94735.22;;;17.81;69.13
30682;BME280;17439;48.092;11.842;2023-08-06T01:32:58;94726.13;;;17.73;69.05
30682;BME280;17439;48.092;11.842;2023-08-06T01:35:28;94728.91;;;17.76;69.27
30682;BME280;17439;48.092;11.842;2023-08-06T01:37:59;94714.78;;;17.74;69.22
30682;BME280;17439;48.092;11.842;2023-08-06T01:40:26;94721.00;;;17.71;69.45
30682;BME280;17439;48.092;11.842;2023-08-06T01:42:53;94724.13;;;17.70;69.15
30682;BME280;17439;48.092;11.842;2023-08-06T01:45:19;94725.66;;;17.67;68.91
30682;BME280;17439;48.092;11.842;2023-08-06T01:47:48;94723.69;;;17.64;69.07
30682;BME280;17439;48.092;11.842;2023-08-06T01:50:14;94726.44;;;17.64;69.02
30682;BME280;17439;48.092;11.842;2023-08-06T01:52:41;94724.00;;;17.59;69.04
30682;BME280;17439;48.092;11.842;2023-08-06T01:55:08;94720.44;;;17.55;69.04
30682;BME280;17439;48.092;11.842;2023-08-06T01:57:34;94723.19;;;17.55;69.28
30682;BME280;17439;48.092;11.842;2023-08-06T02:00:02;94719.22;;;17.52;69.38
30682;BME280;17439;48.092;11.842;2023-08-06T02:02:38;94727.81;;;17.51;69.25
30682;BME280;17439;48.092;11.842;2023-08-06T02:05:05;94720.75;;;17.50;69.55
30682;BME280;17439;48.092;11.842;2023-08-06T02:07:32;94711.34;;;17.47;69.56
30682;BME280;17439;48.092;11.842;2023-08-06T02:09:59;94711.72;;;17.46;69.75
30682;BME280;17439;48.092;11.842;2023-08-06T02:12:25;94706.25;;;17.46;69.62
30682;BME280;17439;48.092;11.842;2023-08-06T02:14:52;94706.59;;;17.44;69.58
30682;BME280;17439;48.092;11.842;2023-08-06T02:17:19;94705.84;;;17.44;69.58
30682;BME280;17439;48.092;11.842;2023-08-06T02:19:46;94700.34;;;17.44;69.40
30682;BME280;17439;48.092;11.842;2023-08-06T02:22:12;94701.13;;;17.44;69.60
30682;BME280;17439;48.092;11.842;2023-08-06T02:24:40;94706.84;;;17.32;68.98
30682;BME280;17439;48.092;11.842;2023-08-06T02:27:09;94695.63;;;17.40;69.40
30682;BME280;17439;48.092;11.842;2023-08-06T02:29:36;94697.13;;;17.38;69.12
30682;BME280;17439;48.092;11.842;2023-08-06T02:32:03;94687.69;;;17.35;69.39
30682;BME280;17439;48.092;11.842;2023-08-06T02:34:32;94690.44;;;17.35;69.23
30682;BME280;17439;48.092;11.842;2023-08-06T02:36:58;94682.22;;;17.35;69.33
30682;BME280;17439;48.092;11.842;2023-08-06T02:39:25;94682.56;;;17.30;69.25
30682;BME280;17439;48.092;11.842;2023-08-06T02:41:52;94674.34;;;17.30;69.22
30682;BME280;17439;48.092;11.842;2023-08-06T02:44:19;94670.41;;;17.28;69.01
30682;BME280;17439;48.092;11.842;2023-08-06T02:46:46;94674.72;;;17.29;69.00
30682;BME280;17439;48.092;11.842;2023-08-06T02:49:12;94673.53;;;17.26;69.00
30682;BME280;17439;48.092;11.842;2023-08-06T02:51:39;94671.16;;;17.25;68.74
30682;BME280;17439;48.092;11.842;2023-08-06T02:54:06;94667.56;;;17.20;68.97
30682;BME280;17439;48.092;11.842;2023-08-06T02:56:35;94662.47;;;17.19;69.16
30682;BME280;17439;48.092;11.842;2023-08-06T02:59:10;94658.16;;;17.18;69.06
30682;BME280;17439;48.092;11.842;2023-08-06T03:01:49;94658.50;;;17.16;69.19
30682;BME280;17439;48.092;11.842;2023-08-06T03:04:23;94646.78;;;17.16;68.99
30682;BME280;17439;48.092;11.842;2023-08-06T03:06:50;94631.53;;;17.15;69.21
30682;BME280;17439;48.092;11.842;2023-08-06T03:09:19;94614.69;;;17.16;69.20
30682;BME280;17439;48.092;11.842;2023-08-06T03:11:48;94622.91;;;17.16;69.07
30682;BME280;17439;48.092;11.842;2023-08-06T03:14:15;94619.00;;;17.14;69.11
30682;BME280;17439;48.092;11.842;2023-08-06T03:16:43;94622.88;;;17.13;69.05
30682;BME280;17439;48.092;11.842;2023-08-06T03:19:12;94624.84;;;17.12;69.12
30682;BME280;17439;48.092;11.842;2023-08-06T03:21:39;94638.53;;;17.12;69.11
30682;BME280;17439;48.092;11.842;2023-08-06T03:24:07;94629.09;;;17.10;69.11
30682;BME280;17439;48.092;11.842;2023-08-06T03:26:35;94635.75;;;17.09;68.89
30682;BME280;17439;48.092;11.842;2023-08-06T03:29:02;94640.78;;;17.07;69.04
30682;BME280;17439;48.092;11.842;2023-08-06T03:31:32;94635.31;;;17.07;68.62
30682;BME280;17439;48.092;11.842;2023-08-06T03:33:59;94636.44;;;17.02;68.65
30682;BME280;17439;48.092;11.842;2023-08-06T03:36:28;94646.59;;;17.01;68.53
30682;BME280;17439;48.092;11.842;2023-08-06T03:38:55;94646.56;;;16.98;68.36
30682;BME280;17439;48.092;11.842;2023-08-06T03:41:21;94636.34;;;16.95;68.44
30682;BME280;17439;48.092;11.842;2023-08-06T03:43:48;94651.16;;;16.90;68.54
30682;BME280;17439;48.092;11.842;2023-08-06T03:46:22;94641.66;;;16.84;68.63
30682;BME280;17439;48.092;11.842;2023-08-06T03:48:49;94640.88;;;16.83;68.44
30682;BME280;17439;48.092;11.842;2023-08-06T03:51:16;94635.34;;;16.80;68.75
30682;BME280;17439;48.092;11.842;2023-08-06T03:53:44;94635.72;;;16.78;68.47
30682;BME280;17439;48.092;11.842;2023-08-06T03:56:11;94629.41;;;16.74;68.41
30682;BME280;17439;48.092;11.842;2023-08-06T03:58:38;94629.38;;;16.71;68.51
30682;BME280;17439;48.092;11.842;2023-08-06T04:01:06;94632.84;;;16.67;68.67
30682;BME280;17439;48.092;11.842;2023-08-06T04:03:39;94636.69;;;16.63;68.82
30682;BME280;17439;48.092;11.842;2023-08-06T04:06:07;94637.81;;;16.62;68.78
30682;BME280;17439;48.092;11.842;2023-08-06T04:08:35;94634.25;;;16.58;68.74
30682;BME280;17439;48.092;11.842;2023-08-06T04:11:02;94635.78;;;16.55;68.81
30682;BME280;17439;48.092;11.842;2023-08-06T04:13:28;94634.16;;;16.50;68.92
30682;BME280;17439;48.092;11.842;2023-08-06T04:16:03;94637.25;;;16.49;68.62
30682;BME280;17439;48.092;11.842;2023-08-06T04:18:31;94641.94;;;16.48;68.68
30682;BME280;17439;48.092;11.842;2023-08-06T04:20:58;94637.63;;;16.47;68.83
30682;BME280;17439;48.092;11.842;2023-08-06T04:23:25;94634.84;;;16.44;68.83
30682;BME280;17439;48.092;11.842;2023-08-06T04:25:58;94630.50;;;16.43;68.83
30682;BME280;17439;48.092;11.842;2023-08-06T04:28:29;94629.38;;;16.44;69.20
30682;BME280;17439;48.092;11.842;2023-08-06T04:30:56;94628.16;;;16.41;69.15
30682;BME280;17439;48.092;11.842;2023-08-06T04:33:23;94628.16;;;16.41;69.26
30682;BME280;17439;48.092;11.842;2023-08-06T04:35:56;94622.69;;;16.41;68.64
30682;BME280;17439;48.092;11.842;2023-08-06T04:38:25;94633.97;;;16.40;69.03
30682;BME280;17439;48.092;11.842;2023-08-06T04:40:53;94630.09;;;16.41;69.13
30682;BME280;17439;48.092;11.842;2023-08-06T04:43:21;94632.31;;;16.31;68.68
30682;BME280;17439;48.092;11.842;2023-08-06T04:45:50;94634.78;;;16.40;69.18
30682;BME280;17439;48.092;11.842;2023-08-06T04:48:17;94637.16;;;16.42;69.20
30682;BME280;17439;48.092;11.842;2023-08-06T04:50:48;94639.09;;;16.41;69.03
30682;BME280;17439;48.092;11.842;2023-08-06T04:53:16;94634.84;;;16.44;69.36
30682;BME280;17439;48.092;11.842;2023-08-06T04:55:43;94633.31;;;16.46;69.74
30682;BME280;17439;48.092;11.842;2023-08-06T04:58:10;94632.56;;;16.49;69.77
30682;BME280;17439;48.092;11.842;2023-08-06T05:00:37;94631.03;;;16.52;70.35
30682;BME280;17439;48.092;11.842;2023-08-06T05:03:05;94636.63;;;16.59;70.30
30682;BME280;17439;48.092;11.842;2023-08-06T05:05:31;94638.25;;;16.64;70.55
30682;BME280;17439;48.092;11.842;2023-08-06T05:07:58;94631.34;;;16.74;70.34
30682;BME280;17439;48.092;11.842;2023-08-06T05:10:25;94627.88;;;16.77;70.14
30682;BME280;17439;48.092;11.842;2023-08-06T05:12:52;94633.03;;;16.82;70.10
30682;BME280;17439;48.092;11.842;2023-08-06T05:15:19;94635.50;;;16.91;69.92
30682;BME280;17439;48.092;11.842;2023-08-06T05:17:45;94638.38;;;17.01;69.94
30682;BME280;17439;48.092;11.842;2023-08-06T05:20:12;94645.53;;;17.10;69.89
30682;BME280;17439;48.092;11.842;2023-08-06T05:22:39;94645.97;;;17.12;69.51
30682;BME280;17439;48.092;11.842;2023-08-06T05:25:06;94659.41;;;17.24;69.49
30682;BME280;17439;48.092;11.842;2023-08-06T05:27:33;94650.06;;;17.29;69.56
30682;BME280;17439;48.092;11.842;2023-08-06T05:30:00;94647.41;;;17.36;69.27
30682;BME280;17439;48.092;11.842;2023-08-06T05:32:27;94645.94;;;17.42;68.83
30682;BME280;17439;48.092;11.842;2023-08-06T05:34:54;94645.22;;;17.49;68.62
30682;BME280;17439;48.092;11.842;2023-08-06T05:37:20;94643.28;;;17.53;68.71
30682;BME280;17439;48.092;11.842;2023-08-06T05:39:47;94641.00;;;17.58;68.16
30682;BME280;17439;48.092;11.842;2023-08-06T05:42:14;94641.03;;;17.62;68.07
30682;BME280;17439;48.092;11.842;2023-08-06T05:44:40;94638.72;;;17.64;67.64
30682;BME280;17439;48.092;11.842;2023-08-06T05:47:07;94640.28;;;17.65;67.43
30682;BME280;17439;48.092;11.842;2023-08-06T05:49:34;94637.19;;;17.67;67.45
30682;BME280;17439;48.092;11.842;2023-08-06T05:52:01;94635.22;;;17.67;67.55
30682;BME280;17439;48.092;11.842;2023-08-06T05:54:27;94638.75;;;17.68;67.19
30682;BME280;17439;48.092;11.842;2023-08-06T05:56:54;94637.56;;;17.69;66.94
30682;BME280;17439;48.092;11.842;2023-08-06T05:59:21;94635.66;;;17.69;66.97
30682;BME280;17439;48.092;11.842;2023-08-06T06:01:47;94638.38;;;17.69;67.31
30682;BME280;17439;48.092;11.842;2023-08-06T06:04:14;94642.69;;;17.70;66.81
30682;BME280;17439;48.092;11.842;2023-08-06T06:06:40;94639.53;;;17.68;66.64
30682;BME280;17439;48.092;11.842;2023-08-06T06:09:07;94646.56;;;17.66;66.37
30682;BME280;17439;48.092;11.842;2023-08-06T06:11:34;94643.44;;;17.67;66.36
30682;BME280;17439;48.092;11.842;2023-08-06T06:14:01;94644.63;;;17.66;66.57
30682;BME280;17439;48.092;11.842;2023-08-06T06:16:27;94648.09;;;17.63;66.42
30682;BME280;17439;48.092;11.842;2023-08-06T06:18:54;94643.78;;;17.62;66.28
30682;BME280;17439;48.092;11.842;2023-08-06T06:21:21;94646.53;;;17.62;65.95
30682;BME280;17439;48.092;11.842;2023-08-06T06:23:47;94647.69;;;17.61;66.26
30682;BME280;17439;48.092;11.842;2023-08-06T06:26:14;94650.44;;;17.61;65.97
30682;BME280;17439;48.092;11.842;2023-08-06T06:28:41;94652.81;;;17.63;66.18
30682;BME280;17439;48.092;11.842;2023-08-06T06:31:07;94645.78;;;17.65;66.47
30682;BME280;17439;48.092;11.842;2023-08-06T06:33:34;94646.16;;;17.67;66.32
30682;BME280;17439;48.092;11.842;2023-08-06T06:36:01;94645.78;;;17.69;66.39
30682;BME280;17439;48.092;11.842;2023-08-06T06:38:27;94643.50;;;17.71;66.33
30682;BME280;17439;48.092;11.842;2023-08-06T06:40:57;94644.28;;;17.71;65.28
30682;BME280;17439;48.092;11.842;2023-08-06T06:43:24;94633.34;;;17.75;66.20
30682;BME280;17439;48.092;11.842;2023-08-06T06:46:00;94647.47;;;17.77;65.13
30682;BME280;17439;48.092;11.842;2023-08-06T06:48:29;94647.50;;;17.81;66.07
30682;BME280;17439;48.092;11.842;2023-08-06T06:50:56;94645.19;;;17.86;65.89
30682;BME280;17439;48.092;11.842;2023-08-06T06:53:23;94645.69;;;17.92;65.82
30682;BME280;17439;48.092;11.842;2023-08-06T06:55:50;94647.69;;;17.99;65.88
30682;BME280;17439;48.092;11.842;2023-08-06T06:58:17;94654.06;;;18.10;66.12
30682;BME280;17439;48.092;11.842;2023-08-06T07:00:43;94657.25;;;18.16;65.95
30682;BME280;17439;48.092;11.842;2023-08-06T07:03:10;94649.50;;;18.25;65.65
30682;BME280;17439;48.092;11.842;2023-08-06T07:05:37;94647.63;;;18.36;65.49
30682;BME280;17439;48.092;11.842;2023-08-06T07:08:03;94644.91;;;18.43;64.96
30682;BME280;17439;48.092;11.842;2023-08-06T07:10:30;94648.13;;;18.53;64.86
30682;BME280;17439;48.092;11.842;2023-08-06T07:12:57;94647.81;;;18.65;64.83
30682;BME280;17439;48.092;11.842;2023-08-06T07:15:23;94642.38;;;18.72;63.52
30682;BME280;17439;48.092;11.842;2023-08-06T07:17:50;94640.06;;;18.78;63.15
30682;BME280;17439;48.092;11.842;2023-08-06T07:20:17;94646.81;;;18.88;63.12
30682;BME280;17439;48.092;11.842;2023-08-06T07:22:44;94645.28;;;18.94;61.99
30682;BME280;17439;48.092;11.842;2023-08-06T07:25:11;94640.59;;;18.98;62.10
30682;BME280;17439;48.092;11.842;2023-08-06T07:27:38;94641.38;;;19.02;62.40
30682;BME280;17439;48.092;11.842;2023-08-06T07:30:05;94643.75;;;19.03;62.41
30682;BME280;17439;48.092;11.842;2023-08-06T07:32:32;94644.19;;;19.13;62.76
30682;BME280;17439;48.092;11.842;2023-08-06T07:34:59;94652.50;;;19.24;62.33
30682;BME280;17439;48.092;11.842;2023-08-06T07:37:26;94647.00;;;19.24;60.19
30682;BME280;17439;48.092;11.842;2023-08-06T07:39:54;94638.75;;;19.31;58.83
30682;BME280;17439;48.092;11.842;2023-08-06T07:42:20;94650.97;;;19.40;58.23
30682;BME280;17439;48.092;11.842;2023-08-06T07:44:54;94652.53;;;19.34;58.04
30682;BME280;17439;48.092;11.842;2023-08-06T07:47:22;94652.94;;;19.36;58.08
30682;BME280;17439;48.092;11.842;2023-08-06T07:49:49;94653.28;;;19.24;57.17
30682;BME280;17439;48.092;11.842;2023-08-06T07:52:16;94658.38;;;19.26;57.21
30682;BME280;17439;48.092;11.842;2023-08-06T07:54:42;94650.88;;;19.15;57.85
30682;BME280;17439;48.092;11.842;2023-08-06T07:57:09;94630.06;;;19.14;57.89
30682;BME280;17439;48.092;11.842;2023-08-06T07:59:35;94630.47;;;19.13;58.42
30682;BME280;17439;48.092;11.842;2023-08-06T08:02:02;94628.88;;;19.12;58.62
30682;BME280;17439;48.092;11.842;2023-08-06T08:04:29;94633.59;;;19.11;59.58
30682;BME280;17439;48.092;11.842;2023-08-06T08:06:56;94624.13;;;19.05;59.41
30682;BME280;17439;48.092;11.842;2023-08-06T08:09:22;94608.47;;;19.09;59.76
30682;BME280;17439;48.092;11.842;2023-08-06T08:11:49;94602.56;;;19.07;60.16
30682;BME280;17439;48.092;11.842;2023-08-06T08:14:16;94606.88;;;19.08;60.18
30682;BME280;17439;48.092;11.842;2023-08-06T08:16:43;94609.63;;;19.08;59.81
30682;BME280;17439;48.092;11.842;2023-08-06T08:19:10;94602.22;;;19.16;60.04
30682;BME280;17439;48.092;11.842;2023-08-06T08:21:36;94597.91;;;19.18;60.04
30682;BME280;17439;48.092;11.842;2023-08-06T08:24:04;94596.72;;;19.23;59.78
30682;BME280;17439;48.092;11.842;2023-08-06T08:26:30;94592.44;;;19.26;59.70
30682;BME280;17439;48.092;11.842;2023-08-06T08:28:57;94584.19;;;19.29;60.06
30682;BME280;17439;48.092;11.842;2023-08-06T08:31:24;94589.34;;;19.38;60.29
30682;BME280;17439;48.092;11.842;2023-08-06T08:33:51;94589.72;;;19.40;59.89
30682;BME280;17439;48.092;11.842;2023-08-06T08:36:20;94583.50;;;19.50;60.19
30682;BME280;17439;48.092;11.842;2023-08-06T08:38:47;94585.84;;;19.55;59.35
30682;BME280;17439;48.092;11.842;2023-08-06T08:41:15;94588.25;;;19.68;59.68
30682;BME280;17439;48.092;11.842;2023-08-06T08:43:42;94589.78;;;19.72;58.52
30682;BME280;17439;48.092;11.842;2023-08-06T08:46:10;94587.09;;;19.83;57.81
30682;BME280;17439;48.092;11.842;2023-08-06T08:48:38;94580.41;;;19.88;56.20
30682;BME280;17439;48.092;11.842;2023-08-06T08:51:06;94587.91;;;19.98;57.51
30682;BME280;17439;48.092;11.842;2023-08-06T08:53:33;94580.81;;;20.01;56.64
30682;BME280;17439;48.092;11.842;2023-08-06T08:56:00;94592.22;;;20.10;56.63
30682;BME280;17439;48.092;11.842;2023-08-06T08:58:26;94582.78;;;20.11;55.62
30682;BME280;17439;48.092;11.842;2023-08-06T09:00:54;94596.53;;;20.15;54.06
30682;BME280;17439;48.092;11.842;2023-08-06T09:03:21;94582.41;;;20.13;53.40
30682;BME280;17439;48.092;11.842;2023-08-06T09:05:50;94587.50;;;20.10;54.03
30682;BME280;17439;48.092;11.842;2023-08-06T09:08:21;94589.06;;;20.15;54.61
30682;BME280;17439;48.092;11.842;2023-08-06T09:10:51;94597.34;;;20.19;53.50
30682;BME280;17439;48.092;11.842;2023-08-06T09:13:18;94615.00;;;20.07;52.30
30682;BME280;17439;48.092;11.842;2023-08-06T09:15:45;94610.66;;;20.06;52.02
30682;BME280;17439;48.092;11.842;2023-08-06T09:18:12;94602.03;;;20.04;51.23
30682;BME280;17439;48.092;11.842;2023-08-06T09:20:39;94618.94;;;19.99;51.25
30682;BME280;17439;48.092;11.842;2023-08-06T09:23:10;94606.34;;;19.83;51.87
30682;BME280;17439;48.092;11.842;2023-08-06T09:25:39;94612.25;;;19.89;51.89
30682;BME280;17439;48.092;11.842;2023-08-06T09:28:06;94621.66;;;19.84;51.29
30682;BME280;17439;48.092;11.842;2023-08-06T09:30:36;94604.34;;;19.69;50.20
30682;BME280;17439;48.092;11.842;2023-08-06T09:33:08;94635.41;;;19.77;51.79
30682;BME280;17439;48.092;11.842;2023-08-06T09:35:35;94629.47;;;19.75;51.71
30682;BME280;17439;48.092;11.842;2023-08-06T09:38:08;94633.84;;;19.80;51.78
30682;BME280;17439;48.092;11.842;2023-08-06T09:40:36;94630.66;;;19.74;52.18
30682;BME280;17439;48.092;11.842;2023-08-06T09:43:03;94626.72;;;19.68;52.43
30682;BME280;17439;48.092;11.842;2023-08-06T09:45:33;94631.41;;;19.64;53.06
30682;BME280;17439;48.092;11.842;2023-08-06T09:48:04;94629.09;;;19.69;52.76
30682;BME280;17439;48.092;11.842;2023-08-06T09:50:32;94647.13;;;19.67;52.57
30682;BME280;17439;48.092;11.842;2023-08-06T09:52:59;94630.59;;;19.60;50.54
30682;BME280;17439;48.092;11.842;2023-08-06T09:55:26;94626.28;;;19.51;50.44
30682;BME280;17439;48.092;11.842;2023-08-06T09:57:54;94639.28;;;19.62;51.93
30682;BME280;17439;48.092;11.842;2023-08-06T10:00:21;94650.28;;;19.62;51.94
30682;BME280;17439;48.092;11.842;2023-08-06T10:02:48;94631.38;;;19.56;51.62
30682;BME280;17439;48.092;11.842;2023-08-06T10:05:16;94630.25;;;19.65;53.08
30682;BME280;17439;48.092;11.842;2023-08-06T10:07:43;94627.84;;;19.56;51.85
30682;BME280;17439;48.092;11.842;2023-08-06T10:10:10;94638.88;;;19.63;52.36
30682;BME280;17439;48.092;11.842;2023-08-06T10:12:44;94626.34;;;19.73;50.47
30682;BME280;17439;48.092;11.842;2023-08-06T10:15:15;94623.66;;;19.84;51.43
30682;BME280;17439;48.092;11.842;2023-08-06T10:17:44;94653.50;;;19.85;51.27
30682;BME280;17439;48.092;11.842;2023-08-06T10:20:17;94630.72;;;19.92;48.73
30682;BME280;17439;48.092;11.842;2023-08-06T10:22:44;94633.06;;;19.86;49.38
30682;BME280;17439;48.092;11.842;2023-08-06T10:25:11;94644.06;;;19.83;49.97
30682;BME280;17439;48.092;11.842;2023-08-06T10:30:31;94645.16;;;19.67;48.72
30682;BME280;17439;48.092;11.842;2023-08-06T10:33:02;94636.13;;;19.67;47.98
30682;BME280;17439;48.092;11.842;2023-08-06T10:35:46;94631.41;;;19.64;49.29
30682;BME280;17439;48.092;11.842;2023-08-06T10:38:18;94638.84;;;19.49;49.13
30682;BME280;17439;48.092;11.842;2023-08-06T10:40:52;94646.28;;;19.41;48.49
30682;BME280;17439;48.092;11.842;2023-08-06T10:46:01;94641.53;;;19.34;50.40
30682;BME280;17439;48.092;11.842;2023-08-06T10:48:34;94637.59;;;19.32;49.73
30682;BME280;17439;48.092;11.842;2023-08-06T10:51:01;94632.09;;;19.32;50.09
30682;BME280;17439;48.092;11.842;2023-08-06T10:53:29;94638.38;;;19.32;50.78
30682;BME280;17439;48.092;11.842;2023-08-06T10:56:00;94644.28;;;19.34;50.57
30682;BME280;17439;48.092;11.842;2023-08-06T10:58:33;94660.75;;;19.27;49.76
30682;BME280;17439;48.092;11.842;2023-08-06T11:01:00;94655.69;;;19.33;50.26
30682;BME280;17439;48.092;11.842;2023-08-06T11:03:27;94649.38;;;19.32;50.71
30682;BME280;17439;48.092;11.842;2023-08-06T11:05:54;94652.50;;;19.31;50.12
30682;BME280;17439;48.092;11.842;2023-08-06T11:08:28;94657.22;;;19.34;50.01
30682;BME280;17439;48.092;11.842;2023-08-06T11:10:55;94652.94;;;19.33;50.71
30682;BME280;17439;48.092;11.842;2023-08-06T11:13:33;94647.81;;;19.35;51.14
30682;BME280;17439;48.092;11.842;2023-08-06T11:16:00;94662.72;;;19.34;50.89
30682;BME280;17439;48.092;11.842;2023-08-06T11:18:26;94656.06;;;19.38;50.94
30682;BME280;17439;48.092;11.842;2023-08-06T11:20:53;94668.28;;;19.45;50.81
30682;BME280;17439;48.092;11.842;2023-08-06T11:23:20;94661.63;;;19.53;50.60
30682;BME280;17439;48.092;11.842;2023-08-06T11:25:47;94652.56;;;19.42;50.62
30682;BME280;17439;48.092;11.842;2023-08-06T11:28:13;94658.09;;;19.52;50.69
30682;BME280;17439;48.092;11.842;2023-08-06T11:30:40;94654.56;;;19.55;50.68
30682;BME280;17439;48.092;11.842;2023-08-06T11:33:07;94651.81;;;19.63;51.12
30682;BME280;17439;48.092;11.842;2023-08-06T11:35:35;94659.34;;;19.69;49.88
30682;BME280;17439;48.092;11.842;2023-08-06T11:38:02;94669.91;;;19.67;49.48
30682;BME280;17439;48.092;11.842;2023-08-06T11:40:30;94682.44;;;19.61;50.02
30682;BME280;17439;48.092;11.842;2023-08-06T11:42:58;94678.88;;;19.53;50.51
30682;BME280;17439;48.092;11.842;2023-08-06T11:45:24;94678.50;;;19.44;50.12
30682;BME280;17439;48.092;11.842;2023-08-06T11:47:52;94680.41;;;19.40;50.20
30682;BME280;17439;48.092;11.842;2023-08-06T11:50:23;94657.66;;;19.39;49.82
30682;BME280;17439;48.092;11.842;2023-08-06T11:52:54;94685.84;;;19.26;49.19
30682;BME280;17439;48.092;11.842;2023-08-06T11:55:23;94683.09;;;19.22;49.47
30682;BME280;17439;48.092;11.842;2023-08-06T11:57:50;94690.53;;;19.21;50.74
30682;BME280;17439;48.092;11.842;2023-08-06T12:00:17;94699.97;;;19.28;50.63
30682;BME280;17439;48.092;11.842;2023-08-06T12:02:45;94695.69;;;19.27;51.07
30682;BME280;17439;48.092;11.842;2023-08-06T12:05:18;94691.78;;;19.35;51.73
30682;BME280;17439;48.092;11.842;2023-08-06T12:07:47;94693.38;;;19.36;52.44
30682;BME280;17439;48.092;11.842;2023-08-06T12:10:15;94703.63;;;19.46;51.75
30682;BME280;17439;48.092;11.842;2023-08-06T12:12:42;94691.78;;;19.38;51.30
30682;BME280;17439;48.092;11.842;2023-08-06T12:15:09;94704.75;;;19.38;51.33
30682;BME280;17439;48.092;11.842;2023-08-06T12:17:37;94713.03;;;19.45;51.22
30682;BME280;17439;48.092;11.842;2023-08-06T12:20:05;94716.19;;;19.47;50.88
30682;BME280;17439;48.092;11.842;2023-08-06T12:22:33;94710.69;;;19.51;51.41
30682;BME280;17439;48.092;11.842;2023-08-06T12:25:01;94702.78;;;19.42;50.76
30682;BME280;17439;48.092;11.842;2023-08-06T12:27:28;94703.59;;;19.43;51.27
30682;BME280;17439;48.092;11.842;2023-08-06T12:29:54;94711.84;;;19.43;51.48
30682;BME280;17439;48.092;11.842;2023-08-06T12:32:21;94711.44;;;19.40;51.86
30682;BME280;17439;48.092;11.842;2023-08-06T12:34:48;94699.66;;;19.40;52.26
30682;BME280;17439;48.092;11.842;2023-08-06T12:37:19;94709.44;;;19.37;52.21
30682;BME280;17439;48.092;11.842;2023-08-06T12:39:46;94703.59;;;19.43;52.26
30682;BME280;17439;48.092;11.842;2023-08-06T12:42:13;94705.97;;;19.48;52.37
30682;BME280;17439;48.092;11.842;2023-08-06T12:44:41;94719.66;;;19.37;51.43
30682;BME280;17439;48.092;11.842;2023-08-06T12:47:07;94705.16;;;19.40;51.33
30682;BME280;17439;48.092;11.842;2023-08-06T12:49:34;94707.50;;;19.42;51.80
30682;BME280;17439;48.092;11.842;2023-08-06T12:52:01;94694.94;;;19.40;52.09
30682;BME280;17439;48.092;11.842;2023-08-06T12:54:28;94696.53;;;19.42;52.51
30682;BME280;17439;48.092;11.842;2023-08-06T12:56:55;94698.50;;;19.45;52.27
30682;BME280;17439;48.092;11.842;2023-08-06T12:59:22;94700.06;;;19.42;52.06
30682;BME280;17439;48.092;11.842;2023-08-06T13:01:48;94707.50;;;19.42;52.17